Big Bear Station Historical Data
Daily Summary for May 4, 2017 Units:  English    Metric   Both
« Previous Day
Next Day »
Daily Weekly Monthly Yearly Custom
  High: Low: Average:
Temperature: 79.7 °F 41.7 °F 59.4 °F
Dew Point: 44.1 °F 35.2 °F 38.9 °F
Humidity: 83 % 24 % 51 %
Wind Speed: 6.3 mph 0.0 mph 1.8 mph
Wind Gust: -999.0 mph - -
Wind:- - SW
Pressure: 30.25 in 30.18 in -
Precipitation: 0.00 in    
Historical Graphs
 
 
Tabular Data for May 4, 2017
Time Temperature Dew Point Pressure Wind Wind Speed Wind Gust Humidity Rainfall Rate (Hourly)
00:04 47.8 °F 37.0 °F 30.25 in South 1.1 mph -999.0 mph 66 % 0 in
00:19 47.3 °F 35.7 °F 30.25 in Calm   -999.0 mph 64 % 0 in
00:34 47.1 °F 35.5 °F 30.25 in South 1.7 mph -999.0 mph 64 % 0 in
00:49 46.8 °F 37.2 °F 30.25 in South 1.7 mph -999.0 mph 69 % 0 in
01:05 46.4 °F 36.8 °F 30.25 in South 1.1 mph -999.0 mph 69 % 0 in
01:20 46.2 °F 37.3 °F 30.25 in Calm   -999.0 mph 71 % 0 in
01:35 45.7 °F 37.9 °F 30.25 in Calm   -999.0 mph 74 % 0 in
01:50 45.3 °F 37.5 °F 30.25 in Calm   -999.0 mph 74 % 0 in
02:05 44.8 °F 36.0 °F 30.25 in Calm   -999.0 mph 71 % 0 in
02:21 44.8 °F 35.2 °F 30.25 in Calm   -999.0 mph 69 % 0 in
02:36 44.4 °F 35.9 °F 30.24 in Calm   -999.0 mph 72 % 0 in
02:51 44.2 °F 36.4 °F 30.24 in Calm   -999.0 mph 74 % 0 in
03:06 44.2 °F 35.4 °F 30.24 in Calm   -999.0 mph 71 % 0 in
03:21 43.9 °F 35.5 °F 30.24 in Calm   -999.0 mph 72 % 0 in
03:37 43.5 °F 35.8 °F 30.24 in Calm   -999.0 mph 74 % 0 in
03:52 43.3 °F 36.2 °F 30.24 in Calm   -999.0 mph 76 % 0 in
04:07 43.3 °F 36.2 °F 30.24 in Calm   -999.0 mph 76 % 0 in
04:22 43.2 °F 36.8 °F 30.24 in Calm   -999.0 mph 78 % 0 in
04:37 43.0 °F 36.3 °F 30.24 in Calm   -999.0 mph 77 % 0 in
04:53 42.6 °F 35.9 °F 30.23 in Calm   -999.0 mph 77 % 0 in
05:08 42.4 °F 35.7 °F 30.23 in Calm   -999.0 mph 77 % 0 in
05:23 42.4 °F 36.0 °F 30.24 in Calm   -999.0 mph 78 % 0 in
05:38 42.1 °F 36.1 °F 30.24 in Calm   -999.0 mph 79 % 0 in
05:53 42.1 °F 36.4 °F 30.24 in Calm   -999.0 mph 80 % 0 in
06:09 41.7 °F 36.0 °F 30.24 in Calm   -999.0 mph 80 % 0 in
06:24 42.1 °F 36.7 °F 30.24 in Calm   -999.0 mph 81 % 0 in
06:39 42.1 °F 36.7 °F 30.25 in Calm   -999.0 mph 81 % 0 in
06:54 42.4 °F 37.0 °F 30.25 in Calm   -999.0 mph 81 % 0 in
07:09 42.6 °F 37.5 °F 30.25 in Calm   -999.0 mph 82 % 0 in
07:25 43.3 °F 38.2 °F 30.25 in Calm   -999.0 mph 82 % 0 in
07:40 44.4 °F 39.6 °F 30.25 in Calm   -999.0 mph 83 % 0 in
07:55 45.5 °F 40.3 °F 30.25 in Calm   -999.0 mph 82 % 0 in
08:10 47.3 °F 41.8 °F 30.25 in Calm   -999.0 mph 81 % 0 in
08:26 49.5 °F 42.9 °F 30.25 in Calm   -999.0 mph 78 % 0 in
08:41 51.8 °F 43.1 °F 30.25 in Calm   -999.0 mph 72 % 0 in
08:56 54.3 °F 41.6 °F 30.25 in Calm   -999.0 mph 62 % 0 in
09:11 57.0 °F 39.0 °F 30.25 in NW 1.1 mph -999.0 mph 51 % 0 in
09:26 61.0 °F 41.2 °F 30.25 in WNW 2.7 mph -999.0 mph 48 % 0 in
09:42 63.1 °F 40.2 °F 30.25 in NNW 2.7 mph -999.0 mph 43 % 0 in
09:57 64.8 °F 44.1 °F 30.24 in North 3.2 mph -999.0 mph 47 % 0 in
10:12 66.2 °F 37.0 °F 30.25 in WNW 3.7 mph -999.0 mph 34 % 0 in
10:27 68.0 °F 37.8 °F 30.25 in NNW 2.2 mph -999.0 mph 33 % 0 in
10:43 69.6 °F 37.6 °F 30.24 in NNW 2.2 mph -999.0 mph 31 % 0 in
10:59 72.5 °F 38.4 °F 30.24 in NNE 4.2 mph -999.0 mph 29 % 0 in
11:14 73.4 °F 39.2 °F 30.24 in NW 4.2 mph -999.0 mph 29 % 0 in
11:29 74.1 °F 39.8 °F 30.24 in North 4.7 mph -999.0 mph 29 % 0 in
11:44 73.0 °F 39.7 °F 30.24 in North 3.2 mph -999.0 mph 30 % 0 in
12:00 73.2 °F 40.8 °F 30.24 in NE 4.2 mph -999.0 mph 31 % 0 in
12:15 76.1 °F 41.5 °F 30.23 in NNW 4.2 mph -999.0 mph 29 % 0 in
12:30 77.4 °F 40.8 °F 30.23 in NNW 6.3 mph -999.0 mph 27 % 0 in
12:46 78.3 °F 43.4 °F 30.23 in NW 6.3 mph -999.0 mph 29 % 0 in
13:01 77.5 °F 39.9 °F 30.23 in NW 5.8 mph -999.0 mph 26 % 0 in
13:16 79.7 °F 41.8 °F 30.22 in NW 1.7 mph -999.0 mph 26 % 0 in
13:32 77.4 °F 39.8 °F 30.22 in NNE 4.7 mph -999.0 mph 26 % 0 in
13:47 77.7 °F 40.1 °F 30.22 in NW 5.3 mph -999.0 mph 26 % 0 in
14:02 79.2 °F 39.3 °F 30.22 in South 2.7 mph -999.0 mph 24 % 0 in
14:18 79.7 °F 39.7 °F 30.21 in South 2.7 mph -999.0 mph 24 % 0 in
14:33 79.2 °F 40.4 °F 30.21 in NNE 1.7 mph -999.0 mph 25 % 0 in
14:48 77.5 °F 38.9 °F 30.21 in SSE 2.2 mph -999.0 mph 25 % 0 in
15:03 78.6 °F 41.8 °F 30.20 in SSW 5.3 mph -999.0 mph 27 % 0 in
15:18 76.6 °F 41.1 °F 30.20 in North 5.3 mph -999.0 mph 28 % 0 in
15:34 75.6 °F 40.2 °F 30.20 in NW 2.7 mph -999.0 mph 28 % 0 in
15:49 76.1 °F 40.6 °F 30.19 in SW 3.2 mph -999.0 mph 28 % 0 in
16:05 75.0 °F 40.6 °F 30.19 in NNW 5.8 mph -999.0 mph 29 % 0 in
16:20 75.7 °F 40.3 °F 30.19 in West 3.7 mph -999.0 mph 28 % 0 in
16:35 74.5 °F 41.0 °F 30.19 in South 3.7 mph -999.0 mph 30 % 0 in
16:51 77.2 °F 39.7 °F 30.19 in SW 3.2 mph -999.0 mph 26 % 0 in
17:06 78.1 °F 40.4 °F 30.18 in NNW 2.2 mph -999.0 mph 26 % 0 in
17:21 76.1 °F 41.5 °F 30.18 in NNW 2.7 mph -999.0 mph 29 % 0 in
17:36 74.5 °F 43.5 °F 30.18 in West 2.7 mph -999.0 mph 33 % 0 in
17:52 74.1 °F 38.9 °F 30.18 in ENE 3.2 mph -999.0 mph 28 % 0 in
18:07 74.1 °F 39.8 °F 30.18 in SSE 2.7 mph -999.0 mph 29 % 0 in
18:22 71.6 °F 41.0 °F 30.18 in ESE 4.2 mph -999.0 mph 33 % 0 in
18:38 70.2 °F 40.5 °F 30.18 in WNW 2.2 mph -999.0 mph 34 % 0 in
18:53 66.6 °F 42.8 °F 30.18 in NW 2.7 mph -999.0 mph 42 % 0 in
19:09 64.6 °F 42.8 °F 30.18 in West 3.2 mph -999.0 mph 45 % 0 in
19:24 62.8 °F 42.8 °F 30.18 in Calm   -999.0 mph 48 % 0 in
19:39 62.1 °F 41.1 °F 30.18 in NE 2.7 mph -999.0 mph 46 % 0 in
19:55 61.2 °F 40.3 °F 30.18 in Calm   -999.0 mph 46 % 0 in
20:10 60.3 °F 41.1 °F 30.18 in NNW 2.7 mph -999.0 mph 49 % 0 in
20:25 59.5 °F 41.4 °F 30.18 in NE 2.2 mph -999.0 mph 51 % 0 in
20:40 59.5 °F 41.4 °F 30.18 in Calm   -999.0 mph 51 % 0 in
20:56 58.8 °F 40.7 °F 30.18 in SSE 1.1 mph -999.0 mph 51 % 0 in
21:11 58.1 °F 40.6 °F 30.19 in Calm   -999.0 mph 52 % 0 in
21:26 57.6 °F 40.1 °F 30.19 in ESE 1.7 mph -999.0 mph 52 % 0 in
21:41 57.2 °F 38.7 °F 30.19 in SE 2.7 mph -999.0 mph 50 % 0 in
21:57 57.2 °F 37.7 °F 30.19 in South 2.7 mph -999.0 mph 48 % 0 in
22:12 56.7 °F 36.7 °F 30.19 in SSE 2.2 mph -999.0 mph 47 % 0 in
22:27 56.3 °F 37.9 °F 30.19 in Calm   -999.0 mph 50 % 0 in
22:42 55.8 °F 36.4 °F 30.19 in Calm   -999.0 mph 48 % 0 in
22:57 55.6 °F 36.2 °F 30.18 in SSE 1.7 mph -999.0 mph 48 % 0 in
23:13 55.6 °F 35.7 °F 30.18 in South 2.2 mph -999.0 mph 47 % 0 in
23:28 54.0 °F 36.8 °F 30.18 in South 2.2 mph -999.0 mph 52 % 0 in
23:43 53.1 °F 35.9 °F 30.18 in SSE 1.7 mph -999.0 mph 52 % 0 in
23:58 52.3 °F 35.2 °F 30.18 in Calm   -999.0 mph 52 % 0 in
Big Bear CA Weather
Compliments of Weather Underground - 1.5 mb